sensor_id;sensor_type;location;lat;lon;timestamp;P1;durP1;ratioP1;P2;durP2;ratioP2
42296;SDS011;28985;47.456;19.016;2022-07-03T00:01:21;42.40;;;40.30;;
42296;SDS011;28985;47.456;19.016;2022-07-03T00:03:47;33.17;;;31.58;;
42296;SDS011;28985;47.456;19.016;2022-07-03T00:06:14;34.50;;;32.95;;
42296;SDS011;28985;47.456;19.016;2022-07-03T00:08:41;32.38;;;30.67;;
42296;SDS011;28985;47.456;19.016;2022-07-03T00:11:08;23.67;;;22.52;;
42296;SDS011;28985;47.456;19.016;2022-07-03T00:13:35;25.35;;;24.13;;
42296;SDS011;28985;47.456;19.016;2022-07-03T00:16:02;23.13;;;21.95;;
42296;SDS011;28985;47.456;19.016;2022-07-03T00:18:29;20.15;;;18.85;;
42296;SDS011;28985;47.456;19.016;2022-07-03T00:21:03;16.23;;;15.35;;
42296;SDS011;28985;47.456;19.016;2022-07-03T00:23:41;15.75;;;14.75;;
42296;SDS011;28985;47.456;19.016;2022-07-03T00:26:15;14.10;;;13.20;;
42296;SDS011;28985;47.456;19.016;2022-07-03T00:28:44;11.82;;;11.13;;
42296;SDS011;28985;47.456;19.016;2022-07-03T00:31:11;12.32;;;11.43;;
42296;SDS011;28985;47.456;19.016;2022-07-03T00:33:39;12.13;;;10.98;;
42296;SDS011;28985;47.456;19.016;2022-07-03T00:36:07;10.73;;;9.82;;
42296;SDS011;28985;47.456;19.016;2022-07-03T00:38:34;10.80;;;10.00;;
42296;SDS011;28985;47.456;19.016;2022-07-03T00:41:01;10.52;;;9.63;;
42296;SDS011;28985;47.456;19.016;2022-07-03T00:43:29;10.85;;;10.10;;
42296;SDS011;28985;47.456;19.016;2022-07-03T00:46:03;9.68;;;9.07;;
42296;SDS011;28985;47.456;19.016;2022-07-03T00:48:36;9.93;;;8.95;;
42296;SDS011;28985;47.456;19.016;2022-07-03T00:51:04;8.73;;;8.02;;
42296;SDS011;28985;47.456;19.016;2022-07-03T00:53:32;9.60;;;8.63;;
42296;SDS011;28985;47.456;19.016;2022-07-03T00:56:02;9.40;;;8.70;;
42296;SDS011;28985;47.456;19.016;2022-07-03T00:58:30;9.40;;;8.70;;
42296;SDS011;28985;47.456;19.016;2022-07-03T01:01:00;9.52;;;8.82;;
42296;SDS011;28985;47.456;19.016;2022-07-03T01:03:27;9.98;;;9.27;;
42296;SDS011;28985;47.456;19.016;2022-07-03T01:05:55;9.57;;;8.68;;
42296;SDS011;28985;47.456;19.016;2022-07-03T01:11:27;10.85;;;10.05;;
42296;SDS011;28985;47.456;19.016;2022-07-03T01:16:39;11.27;;;10.48;;
42296;SDS011;28985;47.456;19.016;2022-07-03T01:24:43;13.60;;;12.70;;
42296;SDS011;28985;47.456;19.016;2022-07-03T01:27:34;12.57;;;11.63;;
42296;SDS011;28985;47.456;19.016;2022-07-03T01:30:10;10.73;;;9.93;;
42296;SDS011;28985;47.456;19.016;2022-07-03T01:32:46;11.45;;;10.68;;
42296;SDS011;28985;47.456;19.016;2022-07-03T01:35:26;13.13;;;12.23;;
42296;SDS011;28985;47.456;19.016;2022-07-03T01:38:13;13.32;;;12.45;;
42296;SDS011;28985;47.456;19.016;2022-07-03T01:40:41;13.80;;;12.90;;
42296;SDS011;28985;47.456;19.016;2022-07-03T01:43:09;14.77;;;13.88;;
42296;SDS011;28985;47.456;19.016;2022-07-03T01:45:45;15.30;;;14.20;;
42296;SDS011;28985;47.456;19.016;2022-07-03T01:48:14;13.48;;;12.68;;
42296;SDS011;28985;47.456;19.016;2022-07-03T01:50:42;13.48;;;12.50;;
42296;SDS011;28985;47.456;19.016;2022-07-03T01:53:10;13.43;;;12.43;;
42296;SDS011;28985;47.456;19.016;2022-07-03T01:55:38;14.75;;;13.75;;
42296;SDS011;28985;47.456;19.016;2022-07-03T01:58:06;14.82;;;13.65;;
42296;SDS011;28985;47.456;19.016;2022-07-03T02:00:40;14.57;;;13.73;;
42296;SDS011;28985;47.456;19.016;2022-07-03T02:03:11;14.35;;;13.45;;
42296;SDS011;28985;47.456;19.016;2022-07-03T02:05:50;15.38;;;14.38;;
42296;SDS011;28985;47.456;19.016;2022-07-03T02:08:43;13.93;;;12.93;;
42296;SDS011;28985;47.456;19.016;2022-07-03T02:11:47;14.13;;;13.05;;
42296;SDS011;28985;47.456;19.016;2022-07-03T02:14:32;13.98;;;12.90;;
42296;SDS011;28985;47.456;19.016;2022-07-03T02:19:41;14.55;;;13.57;;
42296;SDS011;28985;47.456;19.016;2022-07-03T02:22:10;13.73;;;12.63;;
42296;SDS011;28985;47.456;19.016;2022-07-03T02:24:42;12.70;;;11.68;;
42296;SDS011;28985;47.456;19.016;2022-07-03T02:27:19;12.15;;;11.30;;
42296;SDS011;28985;47.456;19.016;2022-07-03T02:30:04;11.60;;;10.70;;
42296;SDS011;28985;47.456;19.016;2022-07-03T02:32:35;9.90;;;9.10;;
42296;SDS011;28985;47.456;19.016;2022-07-03T02:35:05;9.75;;;9.05;;
42296;SDS011;28985;47.456;19.016;2022-07-03T02:37:35;9.65;;;8.75;;
42296;SDS011;28985;47.456;19.016;2022-07-03T02:42:56;11.18;;;6.80;;
42296;SDS011;28985;47.456;19.016;2022-07-03T02:45:40;8.57;;;7.78;;
42296;SDS011;28985;47.456;19.016;2022-07-03T02:48:27;9.25;;;8.35;;
42296;SDS011;28985;47.456;19.016;2022-07-03T02:51:04;9.30;;;7.60;;
42296;SDS011;28985;47.456;19.016;2022-07-03T02:57:13;8.73;;;6.57;;
42296;SDS011;28985;47.456;19.016;2022-07-03T02:59:45;8.70;;;7.30;;
42296;SDS011;28985;47.456;19.016;2022-07-03T03:05:05;8.48;;;7.68;;
42296;SDS011;28985;47.456;19.016;2022-07-03T03:07:45;8.43;;;7.13;;
42296;SDS011;28985;47.456;19.016;2022-07-03T03:10:21;8.38;;;7.05;;
42296;SDS011;28985;47.456;19.016;2022-07-03T03:12:51;7.35;;;6.63;;
42296;SDS011;28985;47.456;19.016;2022-07-03T03:15:24;9.82;;;7.43;;
42296;SDS011;28985;47.456;19.016;2022-07-03T03:17:55;7.68;;;6.93;;
42296;SDS011;28985;47.456;19.016;2022-07-03T03:20:30;8.70;;;7.90;;
42296;SDS011;28985;47.456;19.016;2022-07-03T03:25:48;7.32;;;6.63;;
42296;SDS011;28985;47.456;19.016;2022-07-03T03:28:17;8.38;;;7.50;;
42296;SDS011;28985;47.456;19.016;2022-07-03T03:30:43;9.60;;;7.35;;
42296;SDS011;28985;47.456;19.016;2022-07-03T03:33:10;7.97;;;7.18;;
42296;SDS011;28985;47.456;19.016;2022-07-03T03:35:38;8.13;;;6.65;;
42296;SDS011;28985;47.456;19.016;2022-07-03T03:38:05;10.23;;;6.93;;
42296;SDS011;28985;47.456;19.016;2022-07-03T03:40:32;7.78;;;7.00;;
42296;SDS011;28985;47.456;19.016;2022-07-03T03:43:01;8.60;;;7.60;;
42296;SDS011;28985;47.456;19.016;2022-07-03T03:45:28;7.57;;;6.88;;
42296;SDS011;28985;47.456;19.016;2022-07-03T03:47:55;6.75;;;6.25;;
42296;SDS011;28985;47.456;19.016;2022-07-03T03:50:22;10.25;;;7.15;;
42296;SDS011;28985;47.456;19.016;2022-07-03T03:52:49;7.22;;;6.53;;
42296;SDS011;28985;47.456;19.016;2022-07-03T03:55:16;7.90;;;7.10;;
42296;SDS011;28985;47.456;19.016;2022-07-03T03:57:42;7.47;;;6.68;;
42296;SDS011;28985;47.456;19.016;2022-07-03T04:00:09;16.52;;;9.02;;
42296;SDS011;28985;47.456;19.016;2022-07-03T04:02:36;8.50;;;6.28;;
42296;SDS011;28985;47.456;19.016;2022-07-03T04:05:03;9.65;;;7.68;;
42296;SDS011;28985;47.456;19.016;2022-07-03T04:07:30;8.02;;;7.07;;
42296;SDS011;28985;47.456;19.016;2022-07-03T04:09:56;7.47;;;6.78;;
42296;SDS011;28985;47.456;19.016;2022-07-03T04:12:23;8.38;;;7.13;;
42296;SDS011;28985;47.456;19.016;2022-07-03T04:14:49;7.72;;;6.53;;
42296;SDS011;28985;47.456;19.016;2022-07-03T04:17:16;6.72;;;6.13;;
42296;SDS011;28985;47.456;19.016;2022-07-03T04:19:43;7.80;;;7.05;;
42296;SDS011;28985;47.456;19.016;2022-07-03T04:22:11;9.95;;;6.97;;
42296;SDS011;28985;47.456;19.016;2022-07-03T04:24:37;9.82;;;6.57;;
42296;SDS011;28985;47.456;19.016;2022-07-03T04:27:04;8.70;;;6.80;;
42296;SDS011;28985;47.456;19.016;2022-07-03T04:29:31;7.70;;;7.03;;
42296;SDS011;28985;47.456;19.016;2022-07-03T04:31:57;7.88;;;6.90;;
42296;SDS011;28985;47.456;19.016;2022-07-03T04:34:24;9.00;;;7.47;;
42296;SDS011;28985;47.456;19.016;2022-07-03T04:36:50;7.80;;;7.10;;
42296;SDS011;28985;47.456;19.016;2022-07-03T04:39:17;7.93;;;6.85;;
42296;SDS011;28985;47.456;19.016;2022-07-03T04:41:43;7.80;;;7.00;;
42296;SDS011;28985;47.456;19.016;2022-07-03T04:44:10;8.77;;;7.63;;
42296;SDS011;28985;47.456;19.016;2022-07-03T04:46:36;8.18;;;6.65;;
42296;SDS011;28985;47.456;19.016;2022-07-03T04:49:03;9.52;;;6.97;;
42296;SDS011;28985;47.456;19.016;2022-07-03T04:51:30;8.02;;;7.07;;
42296;SDS011;28985;47.456;19.016;2022-07-03T04:53:56;8.63;;;7.82;;
42296;SDS011;28985;47.456;19.016;2022-07-03T04:56:23;7.95;;;7.25;;
42296;SDS011;28985;47.456;19.016;2022-07-03T04:58:49;8.55;;;7.78;;
42296;SDS011;28985;47.456;19.016;2022-07-03T05:01:16;9.43;;;8.48;;
42296;SDS011;28985;47.456;19.016;2022-07-03T05:03:43;10.10;;;9.07;;
42296;SDS011;28985;47.456;19.016;2022-07-03T05:06:09;10.15;;;9.25;;
42296;SDS011;28985;47.456;19.016;2022-07-03T05:08:36;9.18;;;8.30;;
42296;SDS011;28985;47.456;19.016;2022-07-03T05:11:02;11.55;;;10.55;;
42296;SDS011;28985;47.456;19.016;2022-07-03T05:13:29;11.60;;;10.70;;
42296;SDS011;28985;47.456;19.016;2022-07-03T05:15:56;12.55;;;11.55;;
42296;SDS011;28985;47.456;19.016;2022-07-03T05:18:22;14.45;;;13.45;;
42296;SDS011;28985;47.456;19.016;2022-07-03T05:20:49;17.17;;;16.00;;
42296;SDS011;28985;47.456;19.016;2022-07-03T05:23:15;18.40;;;17.20;;
42296;SDS011;28985;47.456;19.016;2022-07-03T05:25:42;18.15;;;16.77;;
42296;SDS011;28985;47.456;19.016;2022-07-03T05:28:09;19.67;;;18.48;;
42296;SDS011;28985;47.456;19.016;2022-07-03T05:30:35;21.23;;;19.65;;
42296;SDS011;28985;47.456;19.016;2022-07-03T05:33:02;19.55;;;18.35;;
42296;SDS011;28985;47.456;19.016;2022-07-03T05:35:29;19.73;;;18.30;;
42296;SDS011;28985;47.456;19.016;2022-07-03T05:37:55;21.02;;;19.63;;
42296;SDS011;28985;47.456;19.016;2022-07-03T05:40:22;18.45;;;17.35;;
42296;SDS011;28985;47.456;19.016;2022-07-03T05:42:48;18.48;;;17.20;;
42296;SDS011;28985;47.456;19.016;2022-07-03T05:45:15;17.80;;;16.40;;
42296;SDS011;28985;47.456;19.016;2022-07-03T05:47:41;15.15;;;14.05;;
42296;SDS011;28985;47.456;19.016;2022-07-03T05:50:08;13.60;;;12.50;;
42296;SDS011;28985;47.456;19.016;2022-07-03T05:52:35;14.60;;;13.40;;
42296;SDS011;28985;47.456;19.016;2022-07-03T05:55:02;14.00;;;12.88;;
42296;SDS011;28985;47.456;19.016;2022-07-03T05:57:30;14.25;;;13.25;;
42296;SDS011;28985;47.456;19.016;2022-07-03T05:59:59;14.88;;;13.68;;
42296;SDS011;28985;47.456;19.016;2022-07-03T06:02:26;16.48;;;15.27;;
42296;SDS011;28985;47.456;19.016;2022-07-03T06:04:52;13.57;;;12.57;;
42296;SDS011;28985;47.456;19.016;2022-07-03T06:07:19;16.38;;;15.00;;
42296;SDS011;28985;47.456;19.016;2022-07-03T06:09:45;18.77;;;17.25;;
42296;SDS011;28985;47.456;19.016;2022-07-03T06:12:14;19.70;;;18.30;;
42296;SDS011;28985;47.456;19.016;2022-07-03T06:14:40;24.52;;;23.10;;
42296;SDS011;28985;47.456;19.016;2022-07-03T06:17:07;39.90;;;37.80;;
42296;SDS011;28985;47.456;19.016;2022-07-03T06:19:34;45.13;;;42.78;;
42296;SDS011;28985;47.456;19.016;2022-07-03T06:22:00;53.65;;;51.05;;
42296;SDS011;28985;47.456;19.016;2022-07-03T06:24:27;64.28;;;61.47;;
42296;SDS011;28985;47.456;19.016;2022-07-03T06:26:53;64.18;;;60.83;;
42296;SDS011;28985;47.456;19.016;2022-07-03T06:29:20;71.20;;;68.10;;
42296;SDS011;28985;47.456;19.016;2022-07-03T06:31:49;65.30;;;62.42;;
42296;SDS011;28985;47.456;19.016;2022-07-03T06:34:16;66.30;;;63.40;;
42296;SDS011;28985;47.456;19.016;2022-07-03T06:36:42;73.28;;;70.15;;
42296;SDS011;28985;47.456;19.016;2022-07-03T06:39:09;69.97;;;66.93;;
42296;SDS011;28985;47.456;19.016;2022-07-03T06:41:35;81.57;;;78.00;;
42296;SDS011;28985;47.456;19.016;2022-07-03T06:44:02;84.70;;;80.88;;
42296;SDS011;28985;47.456;19.016;2022-07-03T06:46:29;86.85;;;83.25;;
42296;SDS011;28985;47.456;19.016;2022-07-03T06:48:55;82.03;;;78.63;;
42296;SDS011;28985;47.456;19.016;2022-07-03T06:51:22;82.78;;;79.25;;
42296;SDS011;28985;47.456;19.016;2022-07-03T06:53:48;87.00;;;83.25;;
42296;SDS011;28985;47.456;19.016;2022-07-03T06:56:15;59.33;;;56.58;;
42296;SDS011;28985;47.456;19.016;2022-07-03T06:58:42;80.85;;;77.47;;
42296;SDS011;28985;47.456;19.016;2022-07-03T07:01:08;81.10;;;77.60;;
42296;SDS011;28985;47.456;19.016;2022-07-03T07:03:35;87.50;;;83.82;;
42296;SDS011;28985;47.456;19.016;2022-07-03T07:06:01;66.05;;;63.13;;
42296;SDS011;28985;47.456;19.016;2022-07-03T07:08:28;82.45;;;78.85;;
42296;SDS011;28985;47.456;19.016;2022-07-03T07:10:55;77.50;;;74.20;;
42296;SDS011;28985;47.456;19.016;2022-07-03T07:13:21;66.07;;;62.78;;
42296;SDS011;28985;47.456;19.016;2022-07-03T07:15:48;77.20;;;73.82;;
42296;SDS011;28985;47.456;19.016;2022-07-03T07:18:14;76.30;;;73.00;;
42296;SDS011;28985;47.456;19.016;2022-07-03T07:20:41;64.00;;;61.05;;
42296;SDS011;28985;47.456;19.016;2022-07-03T07:23:07;73.60;;;70.32;;
42296;SDS011;28985;47.456;19.016;2022-07-03T07:25:34;83.93;;;80.38;;
42296;SDS011;28985;47.456;19.016;2022-07-03T07:28:08;97.28;;;93.07;;
42296;SDS011;28985;47.456;19.016;2022-07-03T07:30:35;86.20;;;82.50;;
42296;SDS011;28985;47.456;19.016;2022-07-03T07:33:02;108.82;;;104.32;;
42296;SDS011;28985;47.456;19.016;2022-07-03T07:35:29;107.18;;;102.60;;
42296;SDS011;28985;47.456;19.016;2022-07-03T07:37:55;129.07;;;123.65;;
42296;SDS011;28985;47.456;19.016;2022-07-03T07:40:22;133.65;;;128.07;;
42296;SDS011;28985;47.456;19.016;2022-07-03T07:42:49;130.55;;;125.18;;
42296;SDS011;28985;47.456;19.016;2022-07-03T07:45:15;150.63;;;144.40;;
42296;SDS011;28985;47.456;19.016;2022-07-03T07:47:42;158.43;;;152.00;;
42296;SDS011;28985;47.456;19.016;2022-07-03T07:50:09;139.52;;;133.90;;
42296;SDS011;28985;47.456;19.016;2022-07-03T07:52:36;186.52;;;179.07;;
42296;SDS011;28985;47.456;19.016;2022-07-03T07:55:03;161.25;;;154.90;;
42296;SDS011;28985;47.456;19.016;2022-07-03T07:57:35;203.70;;;195.75;;
42296;SDS011;28985;47.456;19.016;2022-07-03T08:00:09;197.73;;;189.95;;
42296;SDS011;28985;47.456;19.016;2022-07-03T08:02:37;204.27;;;196.23;;
42296;SDS011;28985;47.456;19.016;2022-07-03T08:05:23;199.88;;;192.10;;
42296;SDS011;28985;47.456;19.016;2022-07-03T08:08:09;247.35;;;237.65;;
42296;SDS011;28985;47.456;19.016;2022-07-03T08:10:38;228.93;;;219.75;;
42296;SDS011;28985;47.456;19.016;2022-07-03T08:13:16;237.88;;;228.45;;
42296;SDS011;28985;47.456;19.016;2022-07-03T08:15:44;252.50;;;242.70;;
42296;SDS011;28985;47.456;19.016;2022-07-03T08:18:13;200.23;;;192.35;;
42296;SDS011;28985;47.456;19.016;2022-07-03T08:20:40;134.35;;;129.02;;
42296;SDS011;28985;47.456;19.016;2022-07-03T08:23:06;134.80;;;129.35;;
42296;SDS011;28985;47.456;19.016;2022-07-03T08:25:33;169.02;;;162.10;;
42296;SDS011;28985;47.456;19.016;2022-07-03T08:27:59;141.35;;;135.35;;
42296;SDS011;28985;47.456;19.016;2022-07-03T08:30:26;149.70;;;143.50;;
42296;SDS011;28985;47.456;19.016;2022-07-03T08:32:54;181.13;;;173.95;;
42296;SDS011;28985;47.456;19.016;2022-07-03T08:35:22;182.55;;;175.43;;
42296;SDS011;28985;47.456;19.016;2022-07-03T08:37:49;155.75;;;149.07;;
42296;SDS011;28985;47.456;19.016;2022-07-03T08:40:17;178.32;;;171.18;;
42296;SDS011;28985;47.456;19.016;2022-07-03T08:42:46;183.45;;;175.90;;
42296;SDS011;28985;47.456;19.016;2022-07-03T08:45:13;224.63;;;215.88;;
42296;SDS011;28985;47.456;19.016;2022-07-03T08:47:42;189.48;;;182.07;;
42296;SDS011;28985;47.456;19.016;2022-07-03T08:50:12;194.60;;;186.93;;
42296;SDS011;28985;47.456;19.016;2022-07-03T08:52:41;200.20;;;192.40;;
42296;SDS011;28985;47.456;19.016;2022-07-03T08:55:08;197.82;;;190.23;;
42296;SDS011;28985;47.456;19.016;2022-07-03T08:57:36;198.57;;;190.63;;
42296;SDS011;28985;47.456;19.016;2022-07-03T09:00:05;233.55;;;224.35;;
42296;SDS011;28985;47.456;19.016;2022-07-03T09:02:34;290.25;;;278.90;;
42296;SDS011;28985;47.456;19.016;2022-07-03T09:05:01;245.43;;;236.02;;
42296;SDS011;28985;47.456;19.016;2022-07-03T09:07:34;197.25;;;189.55;;
42296;SDS011;28985;47.456;19.016;2022-07-03T09:10:03;262.00;;;251.70;;
42296;SDS011;28985;47.456;19.016;2022-07-03T09:12:31;188.68;;;181.32;;
42296;SDS011;28985;47.456;19.016;2022-07-03T09:15:01;190.50;;;182.73;;
42296;SDS011;28985;47.456;19.016;2022-07-03T09:17:29;177.55;;;170.60;;
42296;SDS011;28985;47.456;19.016;2022-07-03T09:19:58;160.48;;;154.20;;
42296;SDS011;28985;47.456;19.016;2022-07-03T09:22:32;155.05;;;148.80;;
42296;SDS011;28985;47.456;19.016;2022-07-03T09:27:29;156.23;;;149.98;;
42296;SDS011;28985;47.456;19.016;2022-07-03T09:30:01;146.20;;;140.52;;
42296;SDS011;28985;47.456;19.016;2022-07-03T09:35:24;157.80;;;151.60;;
42296;SDS011;28985;47.456;19.016;2022-07-03T09:37:56;170.40;;;163.57;;
42296;SDS011;28985;47.456;19.016;2022-07-03T09:40:27;176.50;;;169.63;;
42296;SDS011;28985;47.456;19.016;2022-07-03T09:48:22;187.18;;;179.90;;
42296;SDS011;28985;47.456;19.016;2022-07-03T09:53:45;200.60;;;192.63;;
42296;SDS011;28985;47.456;19.016;2022-07-03T09:56:44;198.02;;;190.38;;
42296;SDS011;28985;47.456;19.016;2022-07-03T09:59:10;201.10;;;193.45;;
42296;SDS011;28985;47.456;19.016;2022-07-03T10:01:41;194.02;;;186.60;;
42296;SDS011;28985;47.456;19.016;2022-07-03T10:04:16;177.18;;;170.48;;
42296;SDS011;28985;47.456;19.016;2022-07-03T10:06:51;186.85;;;179.38;;
42296;SDS011;28985;47.456;19.016;2022-07-03T10:09:26;207.85;;;199.65;;
42296;SDS011;28985;47.456;19.016;2022-07-03T10:11:54;211.18;;;202.88;;
42296;SDS011;28985;47.456;19.016;2022-07-03T10:14:26;186.75;;;179.45;;
42296;SDS011;28985;47.456;19.016;2022-07-03T10:16:55;224.80;;;216.23;;
42296;SDS011;28985;47.456;19.016;2022-07-03T10:19:25;218.93;;;210.48;;
42296;SDS011;28985;47.456;19.016;2022-07-03T10:21:57;175.82;;;168.80;;
42296;SDS011;28985;47.456;19.016;2022-07-03T10:24:27;155.90;;;149.88;;
42296;SDS011;28985;47.456;19.016;2022-07-03T10:26:56;145.90;;;140.32;;
42296;SDS011;28985;47.456;19.016;2022-07-03T10:29:25;141.80;;;136.27;;
42296;SDS011;28985;47.456;19.016;2022-07-03T10:31:55;151.13;;;145.27;;
42296;SDS011;28985;47.456;19.016;2022-07-03T10:34:23;156.15;;;150.05;;
42296;SDS011;28985;47.456;19.016;2022-07-03T10:36:58;138.35;;;132.90;;
42296;SDS011;28985;47.456;19.016;2022-07-03T10:43:00;145.02;;;139.32;;
42296;SDS011;28985;47.456;19.016;2022-07-03T10:46:09;134.07;;;128.90;;
42296;SDS011;28985;47.456;19.016;2022-07-03T10:51:25;105.22;;;101.07;;
42296;SDS011;28985;47.456;19.016;2022-07-03T11:21:01;107.10;;;102.57;;
42296;SDS011;28985;47.456;19.016;2022-07-03T11:23:54;103.03;;;99.03;;
42296;SDS011;28985;47.456;19.016;2022-07-03T11:26:34;106.40;;;102.20;;
42296;SDS011;28985;47.456;19.016;2022-07-03T11:29:00;105.05;;;101.05;;
42296;SDS011;28985;47.456;19.016;2022-07-03T11:31:27;104.82;;;99.97;;
42296;SDS011;28985;47.456;19.016;2022-07-03T11:36:27;104.57;;;100.55;;
42296;SDS011;28985;47.456;19.016;2022-07-03T11:41:26;102.47;;;98.28;;
42296;SDS011;28985;47.456;19.016;2022-07-03T11:44:01;104.85;;;100.68;;
42296;SDS011;28985;47.456;19.016;2022-07-03T11:46:29;101.80;;;97.80;;
42296;SDS011;28985;47.456;19.016;2022-07-03T11:51:41;99.93;;;95.83;;
42296;SDS011;28985;47.456;19.016;2022-07-03T11:54:09;95.03;;;91.20;;
42296;SDS011;28985;47.456;19.016;2022-07-03T11:56:36;96.82;;;93.13;;
42296;SDS011;28985;47.456;19.016;2022-07-03T11:59:05;92.82;;;89.22;;
42296;SDS011;28985;47.456;19.016;2022-07-03T12:01:33;94.78;;;91.13;;
42296;SDS011;28985;47.456;19.016;2022-07-03T12:04:14;80.13;;;77.03;;
42296;SDS011;28985;47.456;19.016;2022-07-03T12:06:50;81.03;;;77.72;;
42296;SDS011;28985;47.456;19.016;2022-07-03T12:09:29;76.63;;;73.53;;
42296;SDS011;28985;47.456;19.016;2022-07-03T12:11:58;70.47;;;67.57;;
42296;SDS011;28985;47.456;19.016;2022-07-03T12:14:47;59.42;;;56.95;;
42296;SDS011;28985;47.456;19.016;2022-07-03T12:17:16;61.72;;;58.95;;
42296;SDS011;28985;47.456;19.016;2022-07-03T12:22:29;54.17;;;51.83;;
42296;SDS011;28985;47.456;19.016;2022-07-03T12:24:58;50.30;;;48.22;;
42296;SDS011;28985;47.456;19.016;2022-07-03T12:27:30;49.70;;;47.60;;
42296;SDS011;28985;47.456;19.016;2022-07-03T12:29:59;43.15;;;41.05;;
42296;SDS011;28985;47.456;19.016;2022-07-03T12:32:26;41.13;;;39.17;;
42296;SDS011;28985;47.456;19.016;2022-07-03T12:34:54;39.83;;;38.10;;
42296;SDS011;28985;47.456;19.016;2022-07-03T12:37:31;38.15;;;36.20;;
42296;SDS011;28985;47.456;19.016;2022-07-03T12:40:08;35.92;;;34.40;;
42296;SDS011;28985;47.456;19.016;2022-07-03T12:43:09;34.67;;;33.28;;
42296;SDS011;28985;47.456;19.016;2022-07-03T12:45:29;30.67;;;29.08;;
42296;SDS011;28985;47.456;19.016;2022-07-03T12:47:59;29.10;;;27.88;;
42296;SDS011;28985;47.456;19.016;2022-07-03T12:50:44;30.10;;;28.33;;
42296;SDS011;28985;47.456;19.016;2022-07-03T12:53:25;28.15;;;26.75;;
42296;SDS011;28985;47.456;19.016;2022-07-03T12:55:53;28.38;;;26.83;;
42296;SDS011;28985;47.456;19.016;2022-07-03T12:58:23;27.20;;;25.92;;
42296;SDS011;28985;47.456;19.016;2022-07-03T13:01:29;27.10;;;26.00;;
42296;SDS011;28985;47.456;19.016;2022-07-03T13:04:00;25.52;;;24.15;;
42296;SDS011;28985;47.456;19.016;2022-07-03T13:06:27;25.35;;;23.95;;
42296;SDS011;28985;47.456;19.016;2022-07-03T13:11:31;24.17;;;23.05;;
42296;SDS011;28985;47.456;19.016;2022-07-03T13:14:03;24.35;;;23.10;;
42296;SDS011;28985;47.456;19.016;2022-07-03T13:16:46;25.00;;;23.80;;
42296;SDS011;28985;47.456;19.016;2022-07-03T13:19:18;26.38;;;25.17;;
42296;SDS011;28985;47.456;19.016;2022-07-03T13:21:45;24.33;;;23.23;;
42296;SDS011;28985;47.456;19.016;2022-07-03T13:24:14;23.58;;;22.50;;
42296;SDS011;28985;47.456;19.016;2022-07-03T13:26:42;22.88;;;21.85;;
42296;SDS011;28985;47.456;19.016;2022-07-03T13:29:12;24.42;;;23.20;;
42296;SDS011;28985;47.456;19.016;2022-07-03T13:31:38;23.73;;;22.73;;
42296;SDS011;28985;47.456;19.016;2022-07-03T13:34:05;22.80;;;21.80;;
42296;SDS011;28985;47.456;19.016;2022-07-03T13:36:32;22.05;;;20.95;;
42296;SDS011;28985;47.456;19.016;2022-07-03T13:38:59;22.67;;;21.67;;
42296;SDS011;28985;47.456;19.016;2022-07-03T13:41:26;23.00;;;21.90;;
42296;SDS011;28985;47.456;19.016;2022-07-03T13:43:54;22.42;;;21.30;;
42296;SDS011;28985;47.456;19.016;2022-07-03T13:46:21;21.45;;;20.42;;
42296;SDS011;28985;47.456;19.016;2022-07-03T13:48:48;23.00;;;22.08;;
42296;SDS011;28985;47.456;19.016;2022-07-03T13:51:16;22.77;;;21.77;;
42296;SDS011;28985;47.456;19.016;2022-07-03T13:53:42;22.88;;;21.55;;
42296;SDS011;28985;47.456;19.016;2022-07-03T13:56:09;23.05;;;21.70;;
42296;SDS011;28985;47.456;19.016;2022-07-03T13:58:35;22.40;;;21.33;;
42296;SDS011;28985;47.456;19.016;2022-07-03T14:01:02;23.85;;;22.58;;
42296;SDS011;28985;47.456;19.016;2022-07-03T14:03:29;22.80;;;21.35;;
42296;SDS011;28985;47.456;19.016;2022-07-03T14:05:56;22.38;;;21.25;;
42296;SDS011;28985;47.456;19.016;2022-07-03T14:08:22;22.48;;;21.50;;
42296;SDS011;28985;47.456;19.016;2022-07-03T14:10:49;22.35;;;21.25;;
42296;SDS011;28985;47.456;19.016;2022-07-03T14:13:16;23.13;;;21.90;;
42296;SDS011;28985;47.456;19.016;2022-07-03T14:15:43;22.33;;;21.25;;
42296;SDS011;28985;47.456;19.016;2022-07-03T14:18:10;22.80;;;21.52;;
42296;SDS011;28985;47.456;19.016;2022-07-03T14:20:36;21.90;;;20.90;;
42296;SDS011;28985;47.456;19.016;2022-07-03T14:23:03;22.10;;;20.88;;
42296;SDS011;28985;47.456;19.016;2022-07-03T14:25:29;21.80;;;20.63;;
42296;SDS011;28985;47.456;19.016;2022-07-03T14:27:56;22.35;;;21.15;;
42296;SDS011;28985;47.456;19.016;2022-07-03T14:30:41;22.38;;;20.90;;
42296;SDS011;28985;47.456;19.016;2022-07-03T14:33:26;21.25;;;20.27;;
42296;SDS011;28985;47.456;19.016;2022-07-03T14:35:53;21.58;;;20.58;;
42296;SDS011;28985;47.456;19.016;2022-07-03T14:38:19;21.55;;;20.30;;
42296;SDS011;28985;47.456;19.016;2022-07-03T14:40:46;22.15;;;21.05;;
42296;SDS011;28985;47.456;19.016;2022-07-03T14:43:13;23.70;;;22.35;;
42296;SDS011;28985;47.456;19.016;2022-07-03T14:45:40;22.98;;;21.90;;
42296;SDS011;28985;47.456;19.016;2022-07-03T14:48:07;22.20;;;21.17;;
42296;SDS011;28985;47.456;19.016;2022-07-03T14:50:35;23.00;;;21.90;;
42296;SDS011;28985;47.456;19.016;2022-07-03T14:53:04;23.45;;;22.13;;
42296;SDS011;28985;47.456;19.016;2022-07-03T14:55:35;23.27;;;21.73;;
42296;SDS011;28985;47.456;19.016;2022-07-03T14:58:08;22.30;;;21.33;;
42296;SDS011;28985;47.456;19.016;2022-07-03T15:00:38;22.45;;;21.20;;
42296;SDS011;28985;47.456;19.016;2022-07-03T15:03:15;21.90;;;20.65;;
42296;SDS011;28985;47.456;19.016;2022-07-03T15:05:44;21.05;;;20.15;;
42296;SDS011;28985;47.456;19.016;2022-07-03T15:08:28;21.00;;;20.10;;
42296;SDS011;28985;47.456;19.016;2022-07-03T15:10:56;20.80;;;19.87;;
42296;SDS011;28985;47.456;19.016;2022-07-03T15:13:32;22.05;;;20.67;;
42296;SDS011;28985;47.456;19.016;2022-07-03T15:16:00;21.95;;;20.90;;
42296;SDS011;28985;47.456;19.016;2022-07-03T15:18:27;22.88;;;21.88;;
42296;SDS011;28985;47.456;19.016;2022-07-03T15:20:55;20.98;;;20.02;;
42296;SDS011;28985;47.456;19.016;2022-07-03T15:23:23;21.90;;;20.85;;
42296;SDS011;28985;47.456;19.016;2022-07-03T15:25:52;21.35;;;20.55;;
42296;SDS011;28985;47.456;19.016;2022-07-03T15:28:18;21.98;;;20.90;;
42296;SDS011;28985;47.456;19.016;2022-07-03T15:30:50;22.35;;;21.55;;
42296;SDS011;28985;47.456;19.016;2022-07-03T15:33:18;21.65;;;20.80;;
42296;SDS011;28985;47.456;19.016;2022-07-03T15:35:48;21.67;;;20.85;;
42296;SDS011;28985;47.456;19.016;2022-07-03T15:38:20;20.80;;;20.02;;
42296;SDS011;28985;47.456;19.016;2022-07-03T15:40:58;22.05;;;21.20;;
42296;SDS011;28985;47.456;19.016;2022-07-03T15:48:44;23.02;;;22.08;;
42296;SDS011;28985;47.456;19.016;2022-07-03T15:53:48;21.48;;;20.58;;
42296;SDS011;28985;47.456;19.016;2022-07-03T15:56:18;21.73;;;20.88;;
42296;SDS011;28985;47.456;19.016;2022-07-03T15:58:49;21.20;;;20.30;;